Time;durP1;ratioP1;P1;durP2;ratioP2;P2;SDS_P1;SDS_P2;PMS_P1;PMS_P2;Temp;Humidity;BMP_temperature;BMP_pressure;BME280_temperature;BME280_humidity;BME280_pressure;Samples;Min_cycle;Max_cycle;Signal;HPM_P1;HPM_P2
2021/06/03 00:04:05;;;;;;;15.33;5.90;;;16.20;99.90;;;;;;20857248;28;20026;-79
2021/06/03 00:14:07;;;;;;;10.83;5.10;;;16.40;99.90;;;;;;20891830;28;20033;-78
2021/06/03 00:24:08;;;;;;;;;;;16.60;99.90;;;;;;20909660;28;20528;-79
2021/06/03 00:34:09;;;;;;;7.97;5.97;;;16.50;99.90;;;;;;20881607;28;19913;-79
2021/06/03 00:44:11;;;;;;;9.53;6.93;;;16.30;99.90;;;;;;20856668;28;20033;-77
2021/06/03 00:54:12;;;;;;;9.80;6.78;;;16.10;99.90;;;;;;20858529;28;20038;-79
2021/06/03 01:04:16;;;;;;;8.93;5.57;;;16.10;99.90;;;;;;20869512;28;20029;-78
2021/06/03 01:14:27;;;;;;;7.93;6.55;;;16.30;99.90;;;;;;20865645;28;20029;-79
2021/06/03 01:24:44;;;;;;;9.50;5.65;;;16.00;99.90;;;;;;20838284;28;20034;-79
2021/06/03 01:34:47;;;;;;;8.90;5.90;;;16.20;99.90;;;;;;20857707;28;20033;-79
2021/06/03 01:44:49;;;;;;;10.68;6.40;;;16.30;99.90;;;;;;20855327;28;20069;-78
2021/06/03 01:54:51;;;;;;;7.43;5.65;;;16.10;99.90;;;;;;20834197;28;20539;-79
2021/06/03 02:04:52;;;;;;;6.95;5.20;;;16.10;99.90;;;;;;20857236;28;20029;-78
2021/06/03 02:14:56;;;;;;;7.90;4.50;;;16.20;99.90;;;;;;20855704;28;20118;-78
2021/06/03 02:24:58;;;;;;;9.32;4.35;;;16.20;99.90;;;;;;20847833;28;20448;-79
2021/06/03 02:34:59;;;;;;;10.38;6.32;;;16.10;99.90;;;;;;20819606;28;20040;-79
2021/06/03 02:45:10;;;;;;;7.72;5.80;;;15.90;99.90;;;;;;20853112;28;20052;-79
2021/06/03 02:55:16;;;;;;;8.27;6.25;;;15.60;99.90;;;;;;20848492;28;20061;-80
2021/06/03 03:05:19;;;;;;;9.32;6.18;;;15.70;99.90;;;;;;20851020;28;20416;-79
2021/06/03 03:15:21;;;;;;;7.68;5.75;;;15.70;99.90;;;;;;20832397;28;20029;-79
2021/06/03 03:25:26;;;;;;;7.40;5.60;;;15.60;99.90;;;;;;20835068;28;20026;-78
2021/06/03 03:35:29;;;;;;;11.10;6.43;;;15.60;99.90;;;;;;20836507;28;20032;-79
2021/06/03 03:45:30;;;;;;;7.87;5.37;;;15.60;99.90;;;;;;20842408;28;20033;-80
2021/06/03 03:55:32;;;;;;;7.05;5.22;;;15.50;99.90;;;;;;20864194;28;20059;-80
2021/06/03 04:05:34;;;;;;;7.97;6.07;;;15.50;99.90;;;;;;20835836;28;20041;-78
2021/06/03 04:15:43;;;;;;;9.63;6.40;;;15.50;99.90;;;;;;20858047;28;20036;-79
2021/06/03 04:25:49;;;;;;;10.43;8.50;;;15.60;99.90;;;;;;20847052;28;20128;-79
2021/06/03 04:35:51;;;;;;;14.37;8.53;;;15.70;99.90;;;;;;20851789;28;20056;-78
2021/06/03 04:45:52;;;;;;;14.50;9.82;;;15.80;99.90;;;;;;20855168;28;20038;-79
2021/06/03 04:55:53;;;;;;;12.87;8.97;;;15.80;99.90;;;;;;20860329;28;20087;-79
2021/06/03 05:05:54;;;;;;;9.73;7.30;;;15.90;99.90;;;;;;20864547;28;20089;-78
2021/06/03 05:15:54;;;;;;;11.30;7.60;;;16.10;99.90;;;;;;20867113;28;20034;-78
2021/06/03 05:25:55;;;;;;;15.17;9.77;;;16.00;99.90;;;;;;20846609;28;20057;-78
2021/06/03 05:35:56;;;;;;;15.13;10.70;;;16.10;99.90;;;;;;20840075;28;20034;-79
2021/06/03 05:45:57;;;;;;;15.13;11.33;;;16.20;99.90;;;;;;20879303;23;20469;-76
2021/06/03 05:55:58;;;;;;;17.97;10.27;;;16.40;99.90;;;;;;20911570;28;20501;-76
2021/06/03 06:16:09;;;;;;;17.38;11.95;;;16.70;99.90;;;;;;20912359;28;20029;-77
2021/06/03 06:26:10;;;;;;;15.90;11.67;;;16.80;99.90;;;;;;20913353;28;20102;-76
2021/06/03 06:36:11;;;;;;;13.70;10.57;;;17.20;99.90;;;;;;20911023;28;20070;-77
2021/06/03 06:46:12;;;;;;;14.20;10.33;;;17.70;99.90;;;;;;20908610;28;20128;-76
2021/06/03 06:56:13;;;;;;;11.83;9.27;;;18.00;99.90;;;;;;20939587;28;20451;-76
2021/06/03 07:06:14;;;;;;;12.70;8.63;;;18.40;99.90;;;;;;20978912;28;20063;-76
2021/06/03 07:16:17;;;;;;;13.20;8.33;;;18.60;99.90;;;;;;20916422;28;20036;-76
2021/06/03 07:26:17;;;;;;;10.10;8.23;;;18.80;99.90;;;;;;20913008;28;20039;-76
2021/06/03 07:36:18;;;;;;;11.33;8.37;;;19.00;99.90;;;;;;20913287;28;20033;-75
2021/06/03 07:46:19;;;;;;;9.83;7.30;;;19.80;99.90;;;;;;20897891;28;20537;-75
2021/06/03 07:56:20;;;;;;;8.80;6.70;;;20.30;99.90;;;;;;20897634;28;20045;-76
2021/06/03 08:06:21;;;;;;;10.27;5.67;;;21.90;99.90;;;;;;20907557;28;20445;-75
2021/06/03 08:16:22;;;;;;;6.03;4.57;;;23.20;99.90;;;;;;20899692;28;20057;-75
2021/06/03 08:26:27;;;;;;;7.43;5.33;;;23.70;99.90;;;;;;20893368;28;20037;-75
2021/06/03 08:36:28;;;;;;;5.35;4.55;;;23.40;99.90;;;;;;20888829;28;20028;-75
2021/06/03 08:46:29;;;;;;;5.50;3.90;;;23.00;99.90;;;;;;20890383;28;20029;-76
2021/06/03 08:56:30;;;;;;;7.30;3.45;;;22.70;99.90;;;;;;20893199;28;20120;-76
2021/06/03 09:06:32;;;;;;;5.03;3.03;;;22.90;99.90;;;;;;20890002;28;20037;-76
2021/06/03 09:16:35;;;;;;;5.45;3.38;;;23.80;99.90;;;;;;20891532;28;20021;-76
2021/06/03 09:26:57;;;;;;;7.18;2.60;;;24.90;99.90;;;;;;20889622;28;20040;-76
2021/06/03 09:37:03;;;;;;;6.07;3.05;;;24.80;99.90;;;;;;20888500;28;20087;-76
2021/06/03 09:47:03;;;;;;;4.78;2.92;;;23.10;99.90;;;;;;20887356;28;20033;-74
2021/06/03 09:57:07;;;;;;;4.93;3.10;;;23.10;99.90;;;;;;20887981;28;20052;-76
2021/06/03 10:07:20;;;;;;;7.75;3.05;;;23.40;99.90;;;;;;20891241;28;20033;-75
2021/06/03 10:17:27;;;;;;;3.78;2.65;;;24.20;99.90;;;;;;20894514;28;20028;-76
2021/06/03 10:27:51;;;;;;;4.93;2.63;;;24.60;99.90;;;;;;20902203;28;20578;-78
2021/06/03 10:37:53;;;;;;;3.97;2.10;;;26.10;99.90;;;;;;20901959;28;20029;-76
2021/06/03 10:47:55;;;;;;;2.95;2.10;;;26.70;99.90;;;;;;20903786;28;20083;-76
2021/06/03 10:58:07;;;;;;;6.40;2.22;;;26.50;99.90;;;;;;20899587;28;20559;-76
2021/06/03 11:08:32;;;;;;;7.60;2.55;;;26.50;99.90;;;;;;20910543;28;20029;-78
2021/06/03 11:18:45;;;;;;;4.95;1.88;;;26.10;99.90;;;;;;20993307;28;20052;-78
2021/06/03 11:29:06;;;;;;;4.28;2.85;;;25.90;99.90;;;;;;20939559;28;20052;-80
2021/06/03 11:39:33;;;;;;;6.03;1.88;;;25.00;99.90;;;;;;20926329;28;20089;-77
2021/06/03 11:49:41;;;;;;;4.95;2.08;;;26.00;99.90;;;;;;20929106;28;20502;-77
2021/06/03 12:00:17;;;;;;;5.72;1.80;;;26.00;99.90;;;;;;20922918;28;20037;-76
2021/06/03 12:10:41;;;;;;;4.03;1.85;;;27.20;99.90;;;;;;20871567;28;20079;-77
2021/06/03 12:20:43;;;;;;;6.35;2.35;;;27.20;99.90;;;;;;20928340;28;20029;-77
2021/06/03 12:30:44;;;;;;;6.20;1.92;;;27.30;99.90;;;;;;20946920;28;20033;-75
2021/06/03 12:40:45;;;;;;;4.13;2.00;;;26.80;99.90;;;;;;20944064;28;20087;-77
2021/06/03 12:50:48;;;;;;;3.78;2.53;;;27.60;99.90;;;;;;20927127;28;20251;-76
2021/06/03 13:00:50;;;;;;;7.03;2.30;;;26.70;99.90;;;;;;20893182;28;20357;-76
2021/06/03 13:10:53;;;;;;;4.65;1.90;;;26.70;99.90;;;;;;20892168;28;20048;-76
2021/06/03 13:20:55;;;;;;;4.28;1.90;;;27.20;99.90;;;;;;20891025;28;20033;-74
2021/06/03 13:30:59;;;;;;;6.32;1.80;;;27.10;99.90;;;;;;20891190;28;20315;-75
2021/06/03 13:41:05;;;;;;;5.10;1.95;;;27.90;99.90;;;;;;20889841;28;20048;-77
2021/06/03 13:51:13;;;;;;;4.68;1.85;;;27.70;99.90;;;;;;20888242;28;20106;-76
2021/06/03 14:01:28;;;;;;;5.63;1.65;;;27.70;99.90;;;;;;20887703;28;20035;-75
2021/06/03 14:22:09;;;;;;;5.40;1.73;;;27.40;99.90;;;;;;20890032;28;20559;-75
2021/06/03 14:32:31;;;;;;;5.53;2.17;;;27.60;99.90;;;;;;20865708;28;20053;-75
2021/06/03 14:42:39;;;;;;;2.63;1.50;;;29.30;99.90;;;;;;20885884;28;20033;-76
2021/06/03 14:52:42;;;;;;;6.60;2.25;;;28.30;99.90;;;;;;20885978;28;20064;-76
2021/06/03 15:02:43;;;;;;;4.07;2.33;;;28.50;99.90;;;;;;20946454;28;20037;-76
2021/06/03 15:12:45;;;;;;;2.65;1.55;;;28.90;99.90;;;;;;20937904;28;20107;-76
2021/06/03 15:22:46;;;;;;;4.35;1.60;;;29.00;99.90;;;;;;20903047;28;20033;-77
2021/06/03 15:32:50;;;;;;;5.30;1.67;;;28.70;99.90;;;;;;20952964;28;20043;-76
2021/06/03 15:42:52;;;;;;;3.63;1.65;;;28.10;99.90;;;;;;20966987;28;20406;-77
2021/06/03 15:52:56;;;;;;;4.43;1.60;;;28.10;99.90;;;;;;20986155;28;20012;-73
2021/06/03 16:02:57;;;;;;;5.95;1.88;;;27.80;99.90;;;;;;20984798;28;20036;-76
2021/06/03 16:12:59;;;;;;;8.98;2.05;;;27.70;99.90;;;;;;20978280;28;20029;-75
2021/06/03 16:23:03;;;;;;;3.92;1.52;;;27.50;99.90;;;;;;20975108;28;20025;-77
2021/06/03 16:33:23;;;;;;;8.10;1.58;;;27.40;99.90;;;;;;20893249;28;20041;-76
2021/06/03 16:43:25;;;;;;;7.30;1.73;;;27.40;99.90;;;;;;20894416;28;20029;-76
2021/06/03 16:53:26;;;;;;;5.22;1.67;;;27.50;99.90;;;;;;20894078;28;20036;-77
2021/06/03 17:03:27;;;;;;;4.28;2.10;;;27.40;99.90;;;;;;20890943;28;20745;-76
2021/06/03 17:13:28;;;;;;;5.65;1.80;;;27.60;99.90;;;;;;20892676;28;20037;-77
2021/06/03 17:23:31;;;;;;;5.47;1.52;;;27.40;99.90;;;;;;20890799;28;20024;-76
2021/06/03 17:33:36;;;;;;;9.13;1.85;;;27.20;99.90;;;;;;20890732;28;20040;-76
2021/06/03 17:43:36;;;;;;;11.23;5.25;;;26.80;99.90;;;;;;20908730;23;20052;-83
2021/06/03 17:53:38;;;;;;;6.78;2.17;;;26.30;99.90;;;;;;20921356;23;20060;-83
2021/06/03 18:03:39;;;;;;;3.45;2.15;;;25.60;99.90;;;;;;20911293;28;20028;-81
2021/06/03 18:13:40;;;;;;;4.13;2.10;;;24.60;99.90;;;;;;20911005;28;20045;-82
2021/06/03 18:23:41;;;;;;;6.03;2.30;;;23.70;99.90;;;;;;20892898;28;20124;-81
2021/06/03 18:33:42;;;;;;;5.95;2.10;;;23.60;99.90;;;;;;20905524;28;20025;-83
2021/06/03 18:43:44;;;;;;;5.45;2.42;;;23.20;99.90;;;;;;20883572;28;20052;-79
2021/06/03 18:53:47;;;;;;;6.17;2.30;;;23.00;99.90;;;;;;20904984;28;20377;-80
2021/06/03 19:03:48;;;;;;;5.90;2.00;;;23.10;99.90;;;;;;20891555;28;20037;-80
2021/06/03 19:13:53;;;;;;;3.60;2.10;;;22.80;99.90;;;;;;20908135;28;20028;-81
2021/06/03 19:23:54;;;;;;;8.10;2.42;;;22.80;99.90;;;;;;20910703;28;20040;-80
2021/06/03 19:33:55;;;;;;;10.23;2.73;;;22.50;99.90;;;;;;20909974;28;20097;-81
2021/06/03 19:43:56;;;;;;;7.32;2.47;;;22.20;99.90;;;;;;20920396;28;20132;-82
2021/06/03 19:53:57;;;;;;;5.90;2.17;;;21.40;99.90;;;;;;20940811;28;20041;-82
2021/06/03 20:03:58;;;;;;;12.37;3.20;;;20.80;99.90;;;;;;20913576;28;20044;-81
2021/06/03 20:13:59;;;;;;;6.70;2.70;;;20.50;99.90;;;;;;20945806;28;20487;-81
2021/06/03 20:24:00;;;;;;;6.20;3.00;;;20.30;99.90;;;;;;20926744;28;20072;-83
2021/06/03 20:34:04;;;;;;;9.73;3.10;;;19.60;99.90;;;;;;20910046;28;20082;-82
2021/06/03 20:44:06;;;;;;;8.55;3.00;;;19.20;99.90;;;;;;20898507;28;20072;-84
2021/06/03 20:54:07;;;;;;;4.55;3.28;;;19.00;99.90;;;;;;20903603;28;20037;-83
2021/06/03 21:04:08;;;;;;;4.90;3.20;;;18.50;99.90;;;;;;20928021;28;20086;-83
2021/06/03 21:14:11;;;;;;;7.03;3.30;;;18.60;99.90;;;;;;20908898;28;20033;-82
2021/06/03 21:24:12;;;;;;;6.20;3.10;;;18.30;99.90;;;;;;20922099;28;20072;-83
2021/06/03 21:34:17;;;;;;;6.57;3.50;;;18.10;99.90;;;;;;20914398;28;20124;-84
2021/06/03 21:44:18;;;;;;;10.33;3.43;;;17.80;99.90;;;;;;20907234;28;20056;-83
2021/06/03 21:54:25;;;;;;;8.55;3.15;;;17.80;99.90;;;;;;20895457;28;20086;-82
2021/06/03 22:04:26;;;;;;;13.73;4.65;;;17.70;99.90;;;;;;20927032;28;20037;-82
2021/06/03 22:14:30;;;;;;;9.75;3.65;;;17.40;99.90;;;;;;20909609;28;20112;-84
2021/06/03 22:24:42;;;;;;;5.78;4.03;;;16.90;99.90;;;;;;20908449;28;20055;-81
2021/06/03 22:34:43;;;;;;;6.50;4.10;;;16.80;99.90;;;;;;20911323;28;20032;-83
2021/06/03 22:44:44;;;;;;;7.07;4.00;;;16.50;99.90;;;;;;20938619;28;20491;-82
2021/06/03 22:54:45;;;;;;;9.53;5.10;;;16.40;99.90;;;;;;20959410;28;20107;-82
2021/06/03 23:04:46;;;;;;;6.00;4.17;;;16.20;99.90;;;;;;20940237;28;20561;-82
2021/06/03 23:14:47;;;;;;;5.07;4.07;;;16.00;99.90;;;;;;20940201;28;20039;-82
2021/06/03 23:24:48;;;;;;;8.03;5.23;;;16.00;99.90;;;;;;20937661;28;20025;-82
2021/06/03 23:34:49;;;;;;;10.30;4.93;;;16.10;99.90;;;;;;20933326;28;20465;-83
2021/06/03 23:44:51;;;;;;;13.07;4.73;;;16.00;99.90;;;;;;20917126;23;20063;-76
2021/06/03 23:54:51;;;;;;;8.40;4.43;;;15.90;99.90;;;;;;20741693;28;20048;-76
